Time;durP1;ratioP1;P1;durP2;ratioP2;P2;SDS_P1;SDS_P2;PMS_P1;PMS_P2;Temp;Humidity;BMP_temperature;BMP_pressure;BME280_temperature;BME280_humidity;BME280_pressure;Samples;Min_cycle;Max_cycle;Signal;HPM_P1;HPM_P2
2023/02/16 00:01:44;;;;;;;39.60;27.53;;;5.40;99.90;;;;;;5113673;28;20466;-58
2023/02/16 00:04:20;;;;;;;42.17;27.67;;;5.30;99.90;;;;;;5114425;28;20237;-58
2023/02/16 00:06:49;;;;;;;42.10;29.43;;;5.30;99.90;;;;;;5126208;27;20579;-58
2023/02/16 00:09:18;;;;;;;40.83;28.67;;;5.30;99.90;;;;;;5127781;27;20684;-57
2023/02/16 00:14:34;;;;;;;46.03;30.07;;;5.20;99.90;;;;;;5122245;27;20239;-58
2023/02/16 00:17:04;;;;;;;44.87;29.63;;;5.20;99.90;;;;;;5116105;27;20229;-58
2023/02/16 00:19:35;;;;;;;46.83;29.50;;;5.20;99.90;;;;;;5114080;28;20475;-58
2023/02/16 00:22:05;;;;;;;45.00;28.93;;;5.30;99.90;;;;;;5114090;28;20218;-58
2023/02/16 00:24:33;;;;;;;45.57;29.50;;;5.20;99.90;;;;;;5113792;28;20523;-58
2023/02/16 00:27:01;;;;;;;47.67;28.20;;;5.20;99.90;;;;;;5113890;28;20471;-58
2023/02/16 00:29:31;;;;;;;48.03;31.50;;;5.20;99.90;;;;;;5113801;28;20966;-58
2023/02/16 00:32:01;;;;;;;47.37;31.57;;;5.30;99.90;;;;;;5095092;28;20489;-58
2023/02/16 00:34:34;;;;;;;41.87;28.00;;;5.30;99.90;;;;;;5113945;28;20946;-58
2023/02/16 00:37:04;;;;;;;46.63;31.50;;;5.40;99.90;;;;;;5125467;27;20457;-58
2023/02/16 00:39:33;;;;;;;43.60;27.33;;;5.40;99.90;;;;;;5128851;27;20232;-56
2023/02/16 00:42:04;;;;;;;48.23;30.60;;;5.40;99.90;;;;;;5134034;27;20239;-58
2023/02/16 00:44:36;;;;;;;47.17;31.53;;;5.40;99.90;;;;;;5102701;28;20479;-58
2023/02/16 00:47:17;;;;;;;50.10;30.60;;;5.40;99.90;;;;;;5097356;28;20253;-58
2023/02/16 00:49:46;;;;;;;47.97;31.53;;;5.30;99.90;;;;;;5115945;27;20220;-58
2023/02/16 00:52:41;;;;;;;44.60;31.60;;;5.20;99.90;;;;;;5095221;28;20693;-58
2023/02/16 00:55:11;;;;;;;42.53;28.23;;;5.20;99.90;;;;;;5109495;28;20229;-58
2023/02/16 00:57:42;;;;;;;44.43;30.87;;;5.20;99.90;;;;;;5113310;28;20704;-58
2023/02/16 01:00:18;;;;;;;46.23;30.93;;;5.10;99.90;;;;;;5113411;28;20510;-58
2023/02/16 01:02:48;;;;;;;45.90;29.83;;;5.10;99.90;;;;;;5113216;28;20245;-58
2023/02/16 01:05:19;;;;;;;43.67;30.50;;;5.10;99.90;;;;;;5095103;28;20233;-58
2023/02/16 01:13:21;;;;;;;46.80;31.27;;;5.10;99.90;;;;;;5131629;27;20284;-58
2023/02/16 01:15:49;;;;;;;47.77;30.47;;;5.10;99.90;;;;;;5099124;28;20827;-58
2023/02/16 01:18:19;;;;;;;42.73;29.43;;;5.10;99.90;;;;;;5113044;28;20287;-58
2023/02/16 01:20:48;;;;;;;47.67;31.20;;;5.20;99.90;;;;;;5112748;28;20221;-58
2023/02/16 01:23:16;;;;;;;49.30;31.87;;;5.10;99.90;;;;;;5113142;28;20456;-58
2023/02/16 01:25:44;;;;;;;50.00;31.37;;;5.10;99.90;;;;;;5112945;28;20232;-58
2023/02/16 01:28:19;;;;;;;49.20;31.17;;;5.00;99.90;;;;;;5113326;28;20229;-57
2023/02/16 01:30:47;;;;;;;55.73;33.30;;;5.00;99.90;;;;;;5094244;28;20243;-58
2023/02/16 01:33:15;;;;;;;48.13;31.27;;;5.00;99.90;;;;;;5113205;28;20684;-58
2023/02/16 01:35:44;;;;;;;50.60;30.70;;;5.00;99.90;;;;;;5116186;28;20707;-58
2023/02/16 01:38:17;;;;;;;43.33;29.97;;;5.00;99.90;;;;;;5095180;28;20237;-58
2023/02/16 01:40:55;;;;;;;54.77;32.43;;;5.10;99.90;;;;;;5112733;28;20289;-58
2023/02/16 01:43:28;;;;;;;48.43;32.07;;;5.00;99.90;;;;;;5112521;28;20970;-58
2023/02/16 01:46:01;;;;;;;46.53;29.47;;;5.00;99.90;;;;;;5117191;28;20234;-58
2023/02/16 01:48:31;;;;;;;51.90;32.73;;;5.10;99.90;;;;;;5112078;28;20231;-58
2023/02/16 01:51:05;;;;;;;45.23;30.13;;;5.00;99.90;;;;;;5133454;28;20578;-58
2023/02/16 01:53:39;;;;;;;49.83;34.03;;;5.00;99.90;;;;;;5133240;27;20231;-58
2023/02/16 01:56:20;;;;;;;54.53;33.47;;;5.00;99.90;;;;;;5137030;27;20488;-58
2023/02/16 01:58:54;;;;;;;54.50;33.50;;;5.00;99.90;;;;;;5137898;27;20241;-58
2023/02/16 02:08:09;;;;;;;51.90;33.63;;;4.90;99.90;;;;;;5094983;28;20706;-58
2023/02/16 02:10:49;;;;;;;50.30;32.57;;;4.90;99.90;;;;;;5094862;28;20247;-58
2023/02/16 02:13:22;;;;;;;54.83;34.17;;;4.90;99.90;;;;;;5108252;28;20459;-58
2023/02/16 02:15:50;;;;;;;45.30;30.73;;;4.90;99.90;;;;;;5100648;28;20225;-58
2023/02/16 02:18:18;;;;;;;46.00;30.80;;;4.90;99.90;;;;;;5098074;28;20494;-58
2023/02/16 02:24:10;;;;;;;49.97;33.47;;;4.90;99.90;;;;;;5116578;28;20703;-58
2023/02/16 02:26:57;;;;;;;51.70;34.53;;;5.00;99.90;;;;;;5116231;28;20247;-58
2023/02/16 02:30:05;;;;;;;49.03;33.67;;;5.00;99.90;;;;;;5097975;28;20304;-57
2023/02/16 02:32:49;;;;;;;54.33;32.60;;;5.00;99.90;;;;;;5089470;28;20592;-58
2023/02/16 02:35:32;;;;;;;47.37;32.30;;;4.90;99.90;;;;;;5097981;28;20557;-58
2023/02/16 02:38:11;;;;;;;51.27;33.83;;;5.00;99.90;;;;;;5117212;27;20466;-58
2023/02/16 02:40:52;;;;;;;52.53;33.87;;;5.00;99.90;;;;;;5097559;28;20514;-57
2023/02/16 02:43:29;;;;;;;57.27;34.23;;;4.90;99.90;;;;;;5097559;28;20892;-56
2023/02/16 02:46:02;;;;;;;51.97;33.00;;;4.90;99.90;;;;;;5098983;28;20463;-58
2023/02/16 02:48:31;;;;;;;51.43;32.73;;;4.90;99.90;;;;;;5108035;28;20470;-58
2023/02/16 03:00:39;;;;;;;50.27;31.80;;;4.80;99.90;;;;;;5097767;28;20868;-57
2023/02/16 03:02:49;;;;;;;49.90;32.97;;;4.80;99.90;;;;;;5093408;28;20273;-58
2023/02/16 03:05:20;;;;;;;54.30;34.30;;;4.80;99.90;;;;;;5102247;28;20797;-58
2023/02/16 03:07:51;;;;;;;51.90;32.53;;;4.80;99.90;;;;;;5094003;28;20232;-57
2023/02/16 03:13:16;;;;;;;44.97;30.00;;;5.00;99.90;;;;;;5107083;28;20578;-57
2023/02/16 03:15:48;;;;;;;60.53;37.20;;;5.00;99.90;;;;;;5115279;28;20222;-57
2023/02/16 03:29:24;;;;;;;45.80;31.50;;;4.70;99.90;;;;;;5117940;27;20984;-58
2023/02/16 03:32:13;;;;;;;52.00;34.73;;;4.90;99.90;;;;;;5135355;27;20692;-58
2023/02/16 03:34:41;;;;;;;61.23;37.00;;;4.80;99.90;;;;;;5135776;27;20707;-58
2023/02/16 03:37:10;;;;;;;51.27;33.97;;;4.70;99.90;;;;;;5116616;27;20465;-58
2023/02/16 03:42:21;;;;;;;51.77;35.33;;;4.70;99.90;;;;;;5113987;28;20489;-58
2023/02/16 03:44:50;;;;;;;51.83;33.47;;;4.70;99.90;;;;;;5113609;28;20978;-58
2023/02/16 03:47:19;;;;;;;55.27;35.00;;;4.60;99.90;;;;;;5107870;28;20232;-58
2023/02/16 03:49:48;;;;;;;48.07;31.60;;;4.60;99.90;;;;;;5114943;28;20230;-58
2023/02/16 03:52:16;;;;;;;51.33;34.43;;;4.60;99.90;;;;;;5114968;28;20225;-58
2023/02/16 03:54:44;;;;;;;56.07;34.93;;;4.70;99.90;;;;;;5114415;28;20229;-58
2023/02/16 03:57:12;;;;;;;53.80;34.00;;;4.60;99.90;;;;;;5114932;28;20456;-58
2023/02/16 03:59:40;;;;;;;47.87;29.83;;;4.60;99.90;;;;;;5114945;27;20685;-58
2023/02/16 04:02:08;;;;;;;51.03;34.60;;;4.70;99.90;;;;;;5114015;28;20834;-58
2023/02/16 04:04:37;;;;;;;53.30;35.07;;;4.60;99.90;;;;;;5114504;28;20452;-58
2023/02/16 04:07:05;;;;;;;50.33;33.70;;;4.60;99.90;;;;;;5114340;28;20584;-58
2023/02/16 04:09:33;;;;;;;48.43;31.13;;;4.60;99.90;;;;;;5111064;28;20471;-58
2023/02/16 04:14:47;;;;;;;46.33;30.03;;;4.50;99.90;;;;;;5113406;28;20469;-58
2023/02/16 04:17:15;;;;;;;54.93;35.20;;;4.50;99.90;;;;;;5109086;28;20845;-58
2023/02/16 04:19:44;;;;;;;54.47;34.97;;;4.50;99.90;;;;;;5114118;28;20465;-58
2023/02/16 04:22:12;;;;;;;53.03;35.80;;;4.40;99.90;;;;;;5093929;28;20234;-57
2023/02/16 04:24:40;;;;;;;54.00;33.77;;;4.40;99.90;;;;;;5093571;28;20732;-57
2023/02/16 04:27:09;;;;;;;53.73;32.87;;;4.40;99.90;;;;;;5120180;27;20240;-58
2023/02/16 04:29:37;;;;;;;52.50;34.27;;;4.40;99.90;;;;;;5134278;27;20457;-58
2023/02/16 04:32:06;;;;;;;54.83;35.27;;;4.40;99.90;;;;;;5134006;27;20487;-59
2023/02/16 04:34:34;;;;;;;53.53;32.03;;;4.40;99.90;;;;;;5134327;27;20447;-58
2023/02/16 04:37:04;;;;;;;55.47;34.23;;;4.40;99.90;;;;;;5120704;27;20222;-58
2023/02/16 04:39:32;;;;;;;54.67;33.23;;;4.40;99.90;;;;;;5098282;28;20459;-57
2023/02/16 04:42:00;;;;;;;55.20;34.53;;;4.40;99.90;;;;;;5093428;28;20506;-58
2023/02/16 04:44:28;;;;;;;55.03;34.20;;;4.40;99.90;;;;;;5110942;27;20755;-58
2023/02/16 04:46:56;;;;;;;58.20;33.77;;;4.30;99.90;;;;;;5113630;28;20812;-58
2023/02/16 04:49:24;;;;;;;51.53;32.60;;;4.40;99.90;;;;;;5113690;28;20516;-57
2023/02/16 04:51:52;;;;;;;51.77;31.93;;;4.30;99.90;;;;;;5122520;27;21011;-57
2023/02/16 04:54:22;;;;;;;50.13;33.33;;;4.30;99.90;;;;;;5134413;27;20465;-58
2023/02/16 04:56:50;;;;;;;52.07;34.33;;;4.30;99.90;;;;;;5123543;27;20460;-57
2023/02/16 04:59:18;;;;;;;52.30;33.43;;;4.40;99.90;;;;;;5113433;28;20506;-58
2023/02/16 05:01:47;;;;;;;48.90;30.67;;;4.40;99.90;;;;;;5112819;28;20479;-58
2023/02/16 05:04:16;;;;;;;50.47;33.47;;;4.40;99.90;;;;;;5113376;28;20461;-58
2023/02/16 05:06:44;;;;;;;51.27;33.10;;;4.40;99.90;;;;;;5115883;27;20569;-56
2023/02/16 05:09:12;;;;;;;50.47;34.20;;;4.40;99.90;;;;;;5121556;27;20479;-58
2023/02/16 05:14:41;;;;;;;54.13;34.07;;;4.30;99.90;;;;;;5118392;27;20584;-58
2023/02/16 05:17:11;;;;;;;47.40;30.27;;;4.30;99.90;;;;;;5104878;28;20466;-57
2023/02/16 05:19:39;;;;;;;51.07;32.37;;;4.40;99.90;;;;;;5112962;28;20463;-58
2023/02/16 05:22:08;;;;;;;51.27;29.53;;;4.40;99.90;;;;;;5113051;28;20220;-58
2023/02/16 05:24:36;;;;;;;52.90;35.80;;;4.40;99.90;;;;;;5113261;28;20830;-57
2023/02/16 05:27:08;;;;;;;50.27;35.00;;;4.40;99.90;;;;;;5114293;28;20478;-58
2023/02/16 05:29:36;;;;;;;51.13;34.03;;;4.50;99.90;;;;;;5132793;27;20828;-58
2023/02/16 05:32:05;;;;;;;59.57;35.63;;;4.30;99.90;;;;;;5129485;28;20470;-58
2023/02/16 05:34:33;;;;;;;52.30;34.70;;;4.40;99.90;;;;;;5112119;28;20455;-58
2023/02/16 05:37:01;;;;;;;47.63;31.87;;;4.40;99.90;;;;;;5115708;28;20470;-58
2023/02/16 05:39:29;;;;;;;52.07;34.17;;;4.30;99.90;;;;;;5121031;28;20447;-57
2023/02/16 05:41:57;;;;;;;50.13;31.93;;;4.30;99.90;;;;;;5116887;28;20467;-58
2023/02/16 05:44:26;;;;;;;55.43;35.00;;;4.30;99.90;;;;;;5112440;28;20471;-57
2023/02/16 05:46:55;;;;;;;57.93;35.53;;;4.30;99.90;;;;;;5103772;28;20221;-57
2023/02/16 05:49:23;;;;;;;57.00;34.93;;;4.30;99.90;;;;;;5113037;28;20818;-57
2023/02/16 05:51:51;;;;;;;51.53;33.53;;;4.30;99.90;;;;;;5094842;28;20512;-58
2023/02/16 05:54:20;;;;;;;55.07;35.27;;;4.20;99.90;;;;;;5116179;28;20470;-57
2023/02/16 05:56:50;;;;;;;53.03;34.30;;;4.20;99.90;;;;;;5112883;28;20992;-58
2023/02/16 05:59:20;;;;;;;51.47;33.17;;;4.30;99.90;;;;;;5112314;28;20463;-58
2023/02/16 06:01:49;;;;;;;51.60;33.10;;;4.20;99.90;;;;;;5109455;28;20527;-58
2023/02/16 06:04:20;;;;;;;51.57;32.77;;;4.20;99.90;;;;;;5113038;28;20450;-58
2023/02/16 06:06:48;;;;;;;50.47;32.37;;;4.30;99.90;;;;;;5111786;28;20454;-57
2023/02/16 06:09:17;;;;;;;52.40;30.70;;;4.20;99.90;;;;;;5105580;28;20470;-58
2023/02/16 06:11:45;;;;;;;56.43;35.50;;;4.40;99.90;;;;;;5112797;28;20962;-58
2023/02/16 06:14:16;;;;;;;54.33;36.80;;;4.30;99.90;;;;;;5113096;28;20458;-58
2023/02/16 06:16:47;;;;;;;57.67;35.23;;;4.40;99.90;;;;;;5103848;28;20463;-57
2023/02/16 06:19:17;;;;;;;54.03;33.73;;;4.40;99.90;;;;;;5111070;28;20487;-57
2023/02/16 06:21:46;;;;;;;56.50;34.33;;;4.40;99.90;;;;;;5107864;28;20473;-57
2023/02/16 06:24:14;;;;;;;53.50;34.60;;;4.50;99.90;;;;;;5121931;28;20479;-57
2023/02/16 06:26:43;;;;;;;53.37;36.37;;;4.50;99.90;;;;;;5112665;28;20459;-57
2023/02/16 06:29:11;;;;;;;55.83;37.67;;;4.60;99.90;;;;;;5128047;28;20804;-58
2023/02/16 06:31:39;;;;;;;59.53;36.73;;;4.50;99.90;;;;;;5132557;28;20473;-58
2023/02/16 06:34:07;;;;;;;58.40;34.40;;;4.50;99.90;;;;;;5128122;27;21005;-58
2023/02/16 06:36:36;;;;;;;54.03;34.93;;;4.40;99.90;;;;;;5122427;28;20455;-59
2023/02/16 06:39:07;;;;;;;55.30;35.17;;;4.40;99.90;;;;;;5108574;28;20522;-57
2023/02/16 06:41:38;;;;;;;56.27;41.13;;;4.40;99.90;;;;;;5129398;27;20761;-53
2023/02/16 06:44:11;;;;;;;52.90;35.67;;;4.40;99.90;;;;;;5119270;27;20271;-54
2023/02/16 06:46:39;;;;;;;49.60;33.87;;;4.40;99.90;;;;;;5118520;27;20978;-56
2023/02/16 06:49:08;;;;;;;52.27;33.30;;;4.40;99.90;;;;;;5115366;27;20311;-53
2023/02/16 06:51:37;;;;;;;57.43;34.37;;;4.50;99.90;;;;;;5118958;27;20482;-55
2023/02/16 06:54:05;;;;;;;50.57;33.47;;;4.50;99.90;;;;;;5117460;27;20467;-54
2023/02/16 06:56:33;;;;;;;50.67;31.93;;;4.50;99.90;;;;;;5108981;27;20511;-55
2023/02/16 06:59:05;;;;;;;52.60;35.30;;;4.50;99.90;;;;;;5126484;27;20520;-54
2023/02/16 07:01:33;;;;;;;49.07;32.90;;;4.40;99.90;;;;;;5123953;27;20472;-54
2023/02/16 07:04:01;;;;;;;53.17;34.03;;;4.50;99.90;;;;;;5132591;27;20995;-55
2023/02/16 07:06:29;;;;;;;51.37;33.70;;;4.50;99.90;;;;;;5121691;27;20463;-55
2023/02/16 07:08:59;;;;;;;54.23;35.57;;;4.50;99.90;;;;;;5126240;27;20466;-53
2023/02/16 07:11:27;;;;;;;54.83;33.97;;;4.60;99.90;;;;;;5121577;27;20980;-55
2023/02/16 07:13:56;;;;;;;52.70;34.53;;;4.50;99.90;;;;;;5124347;27;20813;-54
2023/02/16 07:16:24;;;;;;;56.33;36.40;;;4.60;99.90;;;;;;5110364;28;20463;-53
2023/02/16 07:18:52;;;;;;;52.27;34.37;;;4.60;99.90;;;;;;5106270;28;20466;-54
2023/02/16 07:21:20;;;;;;;53.90;35.67;;;4.60;99.90;;;;;;5102304;28;20473;-53
2023/02/16 07:23:48;;;;;;;51.93;34.07;;;4.60;99.90;;;;;;5095672;28;20487;-55
2023/02/16 07:26:17;;;;;;;62.17;35.10;;;4.60;99.90;;;;;;5094997;28;20489;-55
2023/02/16 07:28:45;;;;;;;57.20;35.33;;;4.60;99.90;;;;;;5103637;28;20472;-54
2023/02/16 07:31:17;;;;;;;53.40;33.53;;;4.60;99.90;;;;;;5108976;27;20482;-55
2023/02/16 07:33:46;;;;;;;56.40;36.27;;;4.70;99.90;;;;;;5116034;28;20481;-54
2023/02/16 07:36:14;;;;;;;54.83;35.73;;;4.70;99.90;;;;;;5105238;28;20475;-56
2023/02/16 07:38:42;;;;;;;58.28;43.65;;;4.70;99.90;;;;;;5105335;27;20452;-59
2023/02/16 07:41:11;;;;;;;56.53;38.53;;;4.80;99.90;;;;;;5103141;28;20229;-59
2023/02/16 07:43:41;;;;;;;58.90;36.83;;;4.80;99.90;;;;;;5106824;27;20486;-59
2023/02/16 07:46:10;;;;;;;58.83;36.40;;;4.80;99.90;;;;;;5114935;28;20467;-59
2023/02/16 07:48:38;;;;;;;52.83;34.50;;;4.80;99.90;;;;;;5115202;28;20931;-59
2023/02/16 07:51:06;;;;;;;54.33;35.60;;;4.80;99.90;;;;;;5094777;28;20472;-59
2023/02/16 07:53:35;;;;;;;58.70;38.53;;;4.80;99.90;;;;;;5093728;28;20827;-59
2023/02/16 07:56:03;;;;;;;62.40;39.47;;;4.90;99.90;;;;;;5094514;28;20233;-59
2023/02/16 07:58:31;;;;;;;61.17;39.13;;;4.90;99.90;;;;;;5094510;28;20457;-59
2023/02/16 08:01:09;;;;;;;59.57;39.67;;;5.00;99.90;;;;;;5094004;28;20484;-59
2023/02/16 08:03:37;;;;;;;56.93;38.17;;;5.00;99.90;;;;;;5094018;28;20474;-59
2023/02/16 08:06:07;;;;;;;60.27;37.47;;;5.00;99.90;;;;;;5102700;27;20524;-59
2023/02/16 08:08:35;;;;;;;54.97;37.30;;;5.00;99.90;;;;;;5129828;27;20542;-59
2023/02/16 08:11:09;;;;;;;57.30;36.13;;;5.00;99.90;;;;;;5135509;27;20462;-59
2023/02/16 08:13:37;;;;;;;56.67;35.93;;;5.10;99.90;;;;;;5126619;27;20227;-59
2023/02/16 08:16:10;;;;;;;59.73;38.20;;;5.10;99.90;;;;;;5125996;27;20684;-59
2023/02/16 08:18:38;;;;;;;55.20;37.07;;;5.20;99.90;;;;;;5131867;27;20220;-59
2023/02/16 08:21:13;;;;;;;51.33;35.10;;;5.20;99.90;;;;;;5106758;27;21065;-59
2023/02/16 08:23:46;;;;;;;54.40;36.47;;;5.30;99.90;;;;;;5106940;28;20479;-60
2023/02/16 08:26:17;;;;;;;50.83;34.93;;;5.30;99.90;;;;;;5106688;28;20316;-59
2023/02/16 08:28:45;;;;;;;51.10;36.27;;;5.40;99.90;;;;;;5108062;28;20520;-60
2023/02/16 08:31:17;;;;;;;55.30;37.50;;;5.50;99.90;;;;;;5107989;28;20239;-59
2023/02/16 08:33:46;;;;;;;51.37;36.60;;;5.50;99.90;;;;;;5108620;28;20580;-59
2023/02/16 08:36:18;;;;;;;54.80;35.70;;;5.60;99.90;;;;;;5108792;28;20324;-59
2023/02/16 08:38:49;;;;;;;53.07;36.43;;;5.70;99.90;;;;;;5107860;28;20719;-59
2023/02/16 08:41:17;;;;;;;51.37;35.60;;;5.80;99.90;;;;;;5107358;28;20256;-59
2023/02/16 08:43:45;;;;;;;54.83;36.67;;;5.80;99.90;;;;;;5107328;28;20612;-59
2023/02/16 08:46:16;;;;;;;52.87;35.57;;;5.80;99.90;;;;;;5108915;28;21081;-59
2023/02/16 08:48:44;;;;;;;55.37;38.30;;;5.90;99.90;;;;;;5108472;28;20566;-59
2023/02/16 08:51:14;;;;;;;55.63;37.13;;;5.90;99.90;;;;;;5108554;28;20251;-59
2023/02/16 08:53:42;;;;;;;54.60;36.50;;;5.90;99.90;;;;;;5107557;28;20241;-59
2023/02/16 08:56:11;;;;;;;54.20;37.10;;;6.00;99.90;;;;;;5108215;28;20990;-59
2023/02/16 08:58:39;;;;;;;56.63;38.00;;;6.00;99.90;;;;;;5108554;28;20217;-60
2023/02/16 09:01:08;;;;;;;50.60;36.60;;;6.20;99.90;;;;;;5107975;28;20720;-59
2023/02/16 09:03:41;;;;;;;52.47;36.00;;;6.20;99.90;;;;;;5107777;28;20467;-59
2023/02/16 09:06:11;;;;;;;51.33;37.97;;;6.20;99.90;;;;;;5108751;28;20467;-60
2023/02/16 09:08:39;;;;;;;53.13;36.53;;;6.30;99.90;;;;;;5108307;28;20745;-59
2023/02/16 09:11:10;;;;;;;54.70;36.70;;;6.40;99.90;;;;;;5108536;28;20229;-59
2023/02/16 09:13:40;;;;;;;54.57;35.50;;;6.50;99.90;;;;;;5106530;28;20716;-60
2023/02/16 09:16:10;;;;;;;54.03;38.73;;;6.60;99.90;;;;;;5108205;28;20233;-60
2023/02/16 09:18:40;;;;;;;52.90;37.23;;;6.70;99.90;;;;;;5107324;28;20222;-61
2023/02/16 09:21:09;;;;;;;56.27;37.37;;;6.80;99.90;;;;;;5107787;28;20218;-59
2023/02/16 09:23:38;;;;;;;52.40;36.77;;;6.80;99.90;;;;;;5108297;28;20271;-59
2023/02/16 09:26:08;;;;;;;54.37;37.20;;;7.00;99.90;;;;;;5103103;28;20226;-59
2023/02/16 09:28:37;;;;;;;56.53;38.77;;;7.10;99.90;;;;;;5108720;28;20680;-59
2023/02/16 09:31:10;;;;;;;50.17;36.03;;;7.10;99.90;;;;;;5107638;28;20233;-59
2023/02/16 09:33:40;;;;;;;50.97;36.10;;;7.10;99.90;;;;;;5108302;28;20218;-60
2023/02/16 09:36:10;;;;;;;49.27;36.37;;;7.10;99.90;;;;;;5107968;28;20233;-60
2023/02/16 09:38:39;;;;;;;51.60;36.37;;;7.10;99.90;;;;;;5108236;28;20222;-59
2023/02/16 09:41:15;;;;;;;49.27;35.90;;;7.10;99.90;;;;;;5108474;28;20592;-59
2023/02/16 09:43:49;;;;;;;53.30;36.67;;;7.10;99.90;;;;;;5107528;28;20260;-60
2023/02/16 09:46:21;;;;;;;54.40;37.07;;;7.00;99.90;;;;;;5107247;28;20228;-60
2023/02/16 09:48:52;;;;;;;52.27;38.00;;;7.00;99.90;;;;;;5107130;28;20255;-60
2023/02/16 09:51:23;;;;;;;51.43;36.57;;;6.90;99.90;;;;;;5108291;28;20230;-59
2023/02/16 09:54:08;;;;;;;53.77;36.63;;;6.90;99.90;;;;;;5107169;28;20249;-59
2023/02/16 09:56:40;;;;;;;52.93;37.60;;;7.00;99.90;;;;;;5107897;28;20236;-59
2023/02/16 09:59:14;;;;;;;57.23;37.93;;;7.10;99.90;;;;;;5107065;28;20217;-60
2023/02/16 10:01:49;;;;;;;57.20;39.10;;;7.00;99.90;;;;;;5106606;28;20225;-60
2023/02/16 10:04:34;;;;;;;54.47;38.50;;;7.00;99.90;;;;;;5108104;28;20236;-59
2023/02/16 10:07:15;;;;;;;57.40;39.13;;;7.00;99.90;;;;;;5106067;28;20225;-59
2023/02/16 10:09:49;;;;;;;53.87;37.03;;;7.00;99.90;;;;;;5106759;28;20229;-59
2023/02/16 10:12:22;;;;;;;51.90;36.53;;;7.00;99.90;;;;;;5107708;28;20221;-60
2023/02/16 10:14:52;;;;;;;53.03;37.93;;;7.10;99.90;;;;;;5107639;28;20225;-60
2023/02/16 10:17:28;;;;;;;53.60;36.27;;;7.10;99.90;;;;;;5111635;28;20222;-59
2023/02/16 10:20:01;;;;;;;54.00;37.90;;;7.00;99.90;;;;;;5111076;27;20236;-60
2023/02/16 10:22:32;;;;;;;54.73;37.37;;;7.10;99.90;;;;;;5110442;28;20230;-59
2023/02/16 10:25:03;;;;;;;53.60;37.57;;;7.10;99.90;;;;;;5109864;28;20232;-60
2023/02/16 10:27:38;;;;;;;52.10;37.50;;;7.20;99.90;;;;;;5111208;28;20226;-60
2023/02/16 10:30:14;;;;;;;52.37;38.53;;;7.30;99.90;;;;;;5111655;28;20235;-60
2023/02/16 10:32:54;;;;;;;50.13;37.03;;;7.40;99.90;;;;;;5110383;28;20238;-60
2023/02/16 10:35:31;;;;;;;53.77;38.40;;;7.40;99.90;;;;;;5111453;28;20550;-60
2023/02/16 10:38:07;;;;;;;53.07;38.53;;;7.50;99.90;;;;;;5110582;28;20235;-60
2023/02/16 10:40:45;;;;;;;54.20;37.90;;;7.40;99.90;;;;;;5092846;28;20221;-60
2023/02/16 10:43:16;;;;;;;54.93;37.70;;;7.50;99.90;;;;;;5110283;28;20566;-60
2023/02/16 10:45:49;;;;;;;50.70;36.23;;;7.50;99.90;;;;;;5110837;28;20279;-59
2023/02/16 10:48:20;;;;;;;51.87;35.53;;;7.50;99.90;;;;;;5110314;28;20262;-59
2023/02/16 10:50:57;;;;;;;53.03;37.33;;;7.50;99.90;;;;;;5109527;28;20267;-59
2023/02/16 10:53:39;;;;;;;53.53;37.60;;;7.50;99.90;;;;;;5110632;28;20739;-60
2023/02/16 10:56:43;;;;;;;55.20;38.80;;;7.60;99.90;;;;;;5110012;28;20229;-59
2023/02/16 10:59:16;;;;;;;53.17;38.20;;;7.60;99.90;;;;;;5110341;28;20222;-60
2023/02/16 11:01:46;;;;;;;50.50;36.17;;;7.60;99.90;;;;;;5109779;28;20233;-60
2023/02/16 11:04:31;;;;;;;53.27;36.90;;;7.70;99.90;;;;;;5110711;28;20258;-60
2023/02/16 11:07:07;;;;;;;55.10;37.90;;;7.60;99.90;;;;;;5110633;28;20218;-59
2023/02/16 11:09:36;;;;;;;52.80;37.33;;;7.70;99.90;;;;;;5110356;28;20956;-60
2023/02/16 11:12:23;;;;;;;53.83;38.37;;;7.70;99.90;;;;;;5108793;28;20252;-60
2023/02/16 11:14:54;;;;;;;53.43;37.57;;;7.70;99.90;;;;;;5110127;28;20230;-59
2023/02/16 11:17:24;;;;;;;53.63;38.20;;;7.70;99.90;;;;;;5109690;28;20689;-59
2023/02/16 11:19:55;;;;;;;53.07;39.63;;;7.80;99.90;;;;;;5110905;28;20218;-60
2023/02/16 11:22:31;;;;;;;53.87;38.60;;;7.80;99.90;;;;;;5111109;28;20222;-60
2023/02/16 11:25:20;;;;;;;55.00;38.27;;;7.80;99.90;;;;;;5109302;28;20251;-59
2023/02/16 11:27:54;;;;;;;50.43;35.97;;;7.80;99.90;;;;;;5108976;28;20217;-60
2023/02/16 11:30:32;;;;;;;52.17;39.10;;;7.90;99.90;;;;;;5109899;28;20618;-60
2023/02/16 11:33:06;;;;;;;53.47;38.57;;;7.90;99.90;;;;;;5108832;28;20230;-59
2023/02/16 11:35:43;;;;;;;54.73;38.33;;;7.90;99.90;;;;;;5110089;28;20214;-59
2023/02/16 11:38:28;;;;;;;55.60;39.07;;;7.90;99.90;;;;;;5109869;28;20283;-60
2023/02/16 11:40:57;;;;;;;55.73;38.33;;;7.90;99.90;;;;;;5109002;28;20583;-60
2023/02/16 11:43:28;;;;;;;56.50;39.43;;;7.90;99.90;;;;;;5110105;27;20742;-60
2023/02/16 11:45:58;;;;;;;56.77;38.67;;;7.90;99.90;;;;;;5089608;28;20236;-60
2023/02/16 11:48:29;;;;;;;60.77;39.63;;;7.90;99.90;;;;;;5108963;28;20590;-60
2023/02/16 11:50:59;;;;;;;53.03;37.77;;;7.90;99.90;;;;;;5108914;28;20235;-60
2023/02/16 11:53:31;;;;;;;61.23;41.07;;;7.90;99.90;;;;;;5109431;28;20226;-60
2023/02/16 11:56:21;;;;;;;60.33;39.67;;;7.90;99.90;;;;;;5106718;28;20230;-60
2023/02/16 11:59:17;;;;;;;62.70;40.00;;;8.00;99.90;;;;;;5109147;28;20224;-60
2023/02/16 12:02:00;;;;;;;58.00;38.10;;;8.00;99.90;;;;;;5108220;28;20232;-61
2023/02/16 12:04:42;;;;;;;60.30;40.47;;;8.00;99.90;;;;;;5108520;28;20696;-60
2023/02/16 12:07:21;;;;;;;59.57;41.90;;;8.00;99.90;;;;;;5109107;28;20225;-60
2023/02/16 12:09:58;;;;;;;58.67;41.23;;;8.00;99.90;;;;;;5108873;28;20222;-60
2023/02/16 12:12:36;;;;;;;59.67;40.17;;;8.00;99.90;;;;;;5107935;28;20308;-61
2023/02/16 12:15:13;;;;;;;62.60;43.00;;;8.00;99.90;;;;;;5108972;28;20731;-60
2023/02/16 12:17:55;;;;;;;61.47;40.57;;;8.00;99.90;;;;;;5106953;28;20225;-60
2023/02/16 12:20:35;;;;;;;63.50;41.20;;;8.00;99.90;;;;;;5109252;27;20724;-59
2023/02/16 12:23:12;;;;;;;65.17;40.83;;;8.10;99.90;;;;;;5108611;28;20225;-60
2023/02/16 12:25:49;;;;;;;62.43;41.67;;;8.10;99.90;;;;;;5108887;28;20221;-61
2023/02/16 12:28:26;;;;;;;69.03;44.07;;;8.20;99.90;;;;;;5100919;28;20236;-60
2023/02/16 12:31:03;;;;;;;68.70;42.57;;;8.30;99.90;;;;;;5111735;28;20229;-59
2023/02/16 12:33:46;;;;;;;64.57;40.90;;;8.30;99.90;;;;;;5113822;28;20214;-60
2023/02/16 12:36:45;;;;;;;61.33;42.03;;;8.30;99.90;;;;;;5114039;28;20218;-60
2023/02/16 12:39:19;;;;;;;61.33;39.80;;;8.30;99.90;;;;;;5091036;28;20226;-60
2023/02/16 12:42:08;;;;;;;61.70;41.23;;;8.40;99.90;;;;;;5107752;28;20249;-60
2023/02/16 12:44:41;;;;;;;62.50;39.00;;;8.40;99.90;;;;;;5105314;28;20247;-60
2023/02/16 12:47:14;;;;;;;64.03;41.17;;;8.40;99.90;;;;;;5105483;28;20226;-60
2023/02/16 12:49:51;;;;;;;63.13;41.97;;;8.40;99.90;;;;;;5113863;28;20259;-60
2023/02/16 12:52:32;;;;;;;62.30;42.13;;;8.30;99.90;;;;;;5113768;28;20225;-60
2023/02/16 12:55:18;;;;;;;61.97;42.70;;;8.30;99.90;;;;;;5113937;28;20741;-60
2023/02/16 12:57:55;;;;;;;66.67;42.87;;;8.30;99.90;;;;;;5095193;28;20230;-61
2023/02/16 13:00:36;;;;;;;61.10;41.40;;;8.20;99.90;;;;;;5113386;28;20692;-60
2023/02/16 13:03:16;;;;;;;59.87;41.20;;;8.20;99.90;;;;;;5113333;28;20307;-60
2023/02/16 13:05:48;;;;;;;72.00;44.83;;;8.20;99.90;;;;;;5106387;28;21414;-60
2023/02/16 13:08:28;;;;;;;68.30;44.30;;;8.20;99.90;;;;;;5101364;28;20574;-60
2023/02/16 13:11:07;;;;;;;72.73;47.07;;;8.30;99.90;;;;;;5108176;28;20229;-60
2023/02/16 13:13:37;;;;;;;69.23;43.13;;;8.30;99.90;;;;;;5107755;28;20748;-60
2023/02/16 13:16:13;;;;;;;75.47;45.47;;;8.40;99.90;;;;;;5105698;28;20292;-60
2023/02/16 13:18:56;;;;;;;73.40;45.40;;;8.40;99.90;;;;;;5106004;28;20283;-60
2023/02/16 13:21:46;;;;;;;75.33;45.37;;;8.50;99.90;;;;;;5107377;28;20729;-60
2023/02/16 13:24:29;;;;;;;68.40;44.53;;;8.50;99.90;;;;;;5107972;28;20225;-60
2023/02/16 13:27:11;;;;;;;73.03;45.07;;;8.50;99.90;;;;;;5107401;28;20275;-60
2023/02/16 13:30:03;;;;;;;70.93;45.17;;;8.50;99.90;;;;;;5106920;28;20217;-60
2023/02/16 13:33:02;;;;;;;73.70;45.47;;;8.40;99.90;;;;;;5106887;28;20218;-60
2023/02/16 13:36:09;;;;;;;70.73;44.37;;;8.40;99.90;;;;;;5107352;28;20221;-60
2023/02/16 13:39:01;;;;;;;69.93;44.97;;;8.40;99.90;;;;;;5100084;28;20268;-61
2023/02/16 13:41:44;;;;;;;70.20;44.33;;;8.40;99.90;;;;;;5108258;28;20326;-60
2023/02/16 13:44:15;;;;;;;71.30;45.50;;;8.40;99.90;;;;;;5104323;28;20320;-61
2023/02/16 13:46:49;;;;;;;71.47;45.57;;;8.40;99.90;;;;;;5106117;28;20218;-60
2023/02/16 13:49:34;;;;;;;71.80;45.13;;;8.40;99.90;;;;;;5108844;28;20226;-60
2023/02/16 13:52:03;;;;;;;67.83;43.40;;;8.40;99.90;;;;;;5109844;28;20233;-60
2023/02/16 13:54:34;;;;;;;72.27;45.23;;;8.30;99.90;;;;;;5112056;28;20286;-60